sensor_id;sensor_type;location;lat;lon;timestamp;pressure;altitude;pressure_sealevel;temperature;humidity
39891;BME280;25564;53.312;9.790;2023-05-20T00:00:08;101996.78;;;10.87;58.19
39891;BME280;25564;53.312;9.790;2023-05-20T00:02:40;101994.13;;;10.82;58.26
39891;BME280;25564;53.312;9.790;2023-05-20T00:05:12;101986.13;;;10.76;58.27
39891;BME280;25564;53.312;9.790;2023-05-20T00:07:44;101991.47;;;10.84;57.84
39891;BME280;25564;53.312;9.790;2023-05-20T00:10:15;101998.56;;;10.83;57.85
39891;BME280;25564;53.312;9.790;2023-05-20T00:12:46;101979.06;;;10.75;57.69
39891;BME280;25564;53.312;9.790;2023-05-20T00:15:18;101978.16;;;10.73;57.90
39891;BME280;25564;53.312;9.790;2023-05-20T00:17:49;101992.34;;;10.82;57.72
39891;BME280;25564;53.312;9.790;2023-05-20T00:20:21;101994.13;;;10.82;57.65
39891;BME280;25564;53.312;9.790;2023-05-20T00:22:52;101994.13;;;10.79;57.69
39891;BME280;25564;53.312;9.790;2023-05-20T00:25:24;101979.06;;;10.70;57.89
39891;BME280;25564;53.312;9.790;2023-05-20T00:27:55;101967.53;;;10.61;57.95
39891;BME280;25564;53.312;9.790;2023-05-20T00:30:27;101963.09;;;10.61;57.79
39891;BME280;25564;53.312;9.790;2023-05-20T00:32:58;101982.59;;;10.68;58.12
39891;BME280;25564;53.312;9.790;2023-05-20T00:35:30;101993.22;;;10.72;58.31
39891;BME280;25564;53.312;9.790;2023-05-20T00:38:01;101990.56;;;10.69;57.39
39891;BME280;25564;53.312;9.790;2023-05-20T00:40:32;101980.81;;;10.65;57.75
39891;BME280;25564;53.312;9.790;2023-05-20T00:43:04;101996.75;;;10.74;57.72
39891;BME280;25564;53.312;9.790;2023-05-20T00:45:36;101992.34;;;10.75;57.81
39891;BME280;25564;53.312;9.790;2023-05-20T00:48:08;101976.38;;;10.66;58.17
39891;BME280;25564;53.312;9.790;2023-05-20T00:50:39;101974.63;;;10.68;57.74
39891;BME280;25564;53.312;9.790;2023-05-20T00:53:11;101987.91;;;10.74;57.88
39891;BME280;25564;53.312;9.790;2023-05-20T00:55:43;101964.00;;;10.65;57.58
39891;BME280;25564;53.312;9.790;2023-05-20T00:58:14;101981.72;;;10.72;57.50
39891;BME280;25564;53.312;9.790;2023-05-20T01:00:46;101962.22;;;10.61;57.61
39891;BME280;25564;53.312;9.790;2023-05-20T01:03:17;101960.44;;;10.61;57.79
39891;BME280;25564;53.312;9.790;2023-05-20T01:05:49;101979.03;;;10.69;57.45
39891;BME280;25564;53.312;9.790;2023-05-20T01:08:22;101975.50;;;10.65;57.52
39891;BME280;25564;53.312;9.790;2023-05-20T01:11:02;101975.50;;;10.67;57.41
39891;BME280;25564;53.312;9.790;2023-05-20T01:13:42;101956.91;;;10.58;58.35
39891;BME280;25564;53.312;9.790;2023-05-20T01:16:17;101970.19;;;10.65;57.59
39891;BME280;25564;53.312;9.790;2023-05-20T01:18:50;101967.53;;;10.65;57.84
39891;BME280;25564;53.312;9.790;2023-05-20T01:21:26;101953.34;;;10.53;57.77
39891;BME280;25564;53.312;9.790;2023-05-20T01:23:57;101973.72;;;10.63;58.17
39891;BME280;25564;53.312;9.790;2023-05-20T01:26:29;101979.91;;;10.60;57.73
39891;BME280;25564;53.312;9.790;2023-05-20T01:29:00;101971.06;;;10.57;58.25
39891;BME280;25564;53.312;9.790;2023-05-20T01:31:36;101964.81;;;10.44;58.42
39891;BME280;25564;53.312;9.790;2023-05-20T01:34:09;101955.09;;;10.41;58.48
39891;BME280;25564;53.312;9.790;2023-05-20T01:36:41;101968.38;;;10.49;58.67
39891;BME280;25564;53.312;9.790;2023-05-20T01:39:16;101960.41;;;10.38;57.98
39891;BME280;25564;53.312;9.790;2023-05-20T01:41:48;101970.13;;;10.44;57.91
39891;BME280;25564;53.312;9.790;2023-05-20T01:44:20;101961.28;;;10.34;58.13
39891;BME280;25564;53.312;9.790;2023-05-20T01:46:52;101943.56;;;10.24;58.65
39891;BME280;25564;53.312;9.790;2023-05-20T01:49:24;101971.03;;;10.35;58.30
39891;BME280;25564;53.312;9.790;2023-05-20T01:51:56;101959.50;;;10.33;58.92
39891;BME280;25564;53.312;9.790;2023-05-20T01:54:27;101964.81;;;10.30;59.15
39891;BME280;25564;53.312;9.790;2023-05-20T01:56:58;101964.78;;;10.26;59.03
39891;BME280;25564;53.312;9.790;2023-05-20T01:59:30;101962.13;;;10.24;58.42
39891;BME280;25564;53.312;9.790;2023-05-20T02:02:01;101967.44;;;10.21;58.70
39891;BME280;25564;53.312;9.790;2023-05-20T02:04:33;101968.25;;;10.17;58.77
39891;BME280;25564;53.312;9.790;2023-05-20T02:07:04;101976.19;;;10.14;58.69
39891;BME280;25564;53.312;9.790;2023-05-20T02:09:36;101960.25;;;10.05;59.24
39891;BME280;25564;53.312;9.790;2023-05-20T02:12:08;101948.72;;;9.97;58.89
39891;BME280;25564;53.312;9.790;2023-05-20T02:14:39;101970.84;;;10.05;59.52
39891;BME280;25564;53.312;9.790;2023-05-20T02:17:11;101969.06;;;10.01;59.50
39891;BME280;25564;53.312;9.790;2023-05-20T02:19:44;101963.75;;;9.96;59.08
39891;BME280;25564;53.312;9.790;2023-05-20T02:22:17;101968.16;;;9.97;59.64
39891;BME280;25564;53.312;9.790;2023-05-20T02:24:48;101961.94;;;9.91;59.67
39891;BME280;25564;53.312;9.790;2023-05-20T02:27:19;101960.16;;;9.85;59.31
39891;BME280;25564;53.312;9.790;2023-05-20T02:29:51;101963.69;;;9.86;59.59
39891;BME280;25564;53.312;9.790;2023-05-20T02:32:22;101961.91;;;9.84;59.72
39891;BME280;25564;53.312;9.790;2023-05-20T02:34:58;101949.53;;;9.82;59.37
39891;BME280;25564;53.312;9.790;2023-05-20T02:37:29;101951.28;;;9.81;59.98
39891;BME280;25564;53.312;9.790;2023-05-20T02:40:01;101966.31;;;9.79;59.82
39891;BME280;25564;53.312;9.790;2023-05-20T02:42:32;101953.88;;;9.69;59.71
39891;BME280;25564;53.312;9.790;2023-05-20T02:45:04;101952.97;;;9.67;60.18
39891;BME280;25564;53.312;9.790;2023-05-20T02:47:35;101962.72;;;9.70;60.39
39891;BME280;25564;53.312;9.790;2023-05-20T02:50:07;101967.09;;;9.66;60.14
39891;BME280;25564;53.312;9.790;2023-05-20T02:52:39;101963.56;;;9.64;60.59
39891;BME280;25564;53.312;9.790;2023-05-20T02:55:12;101961.75;;;9.60;60.57
39891;BME280;25564;53.312;9.790;2023-05-20T02:57:43;101927.19;;;9.39;60.43
39891;BME280;25564;53.312;9.790;2023-05-20T03:00:15;101946.66;;;9.48;60.69
39891;BME280;25564;53.312;9.790;2023-05-20T03:02:46;101944.91;;;9.49;60.73
39891;BME280;25564;53.312;9.790;2023-05-20T03:05:18;101944.88;;;9.44;60.94
39891;BME280;25564;53.312;9.790;2023-05-20T03:07:49;101953.78;;;9.54;60.89
39891;BME280;25564;53.312;9.790;2023-05-20T03:10:20;101954.63;;;9.51;60.60
39891;BME280;25564;53.312;9.790;2023-05-20T03:12:52;101963.50;;;9.55;60.84
39891;BME280;25564;53.312;9.790;2023-05-20T03:15:23;101969.69;;;9.56;60.71
39891;BME280;25564;53.312;9.790;2023-05-20T03:17:55;101967.03;;;9.56;60.76
39891;BME280;25564;53.312;9.790;2023-05-20T03:20:26;101926.28;;;9.31;61.20
39891;BME280;25564;53.312;9.790;2023-05-20T03:22:59;101962.56;;;9.47;60.86
39891;BME280;25564;53.312;9.790;2023-05-20T03:25:31;101950.16;;;9.40;61.03
39891;BME280;25564;53.312;9.790;2023-05-20T03:28:03;101952.84;;;9.46;61.29
39891;BME280;25564;53.312;9.790;2023-05-20T03:30:34;101967.94;;;9.58;61.04
39891;BME280;25564;53.312;9.790;2023-05-20T03:33:06;101967.94;;;9.61;61.18
39891;BME280;25564;53.312;9.790;2023-05-20T03:35:37;101966.19;;;9.61;61.34
39891;BME280;25564;53.312;9.790;2023-05-20T03:38:09;101968.84;;;9.64;61.55
39891;BME280;25564;53.312;9.790;2023-05-20T03:40:40;101971.53;;;9.67;61.14
39891;BME280;25564;53.312;9.790;2023-05-20T03:43:11;101952.97;;;9.67;61.43
39891;BME280;25564;53.312;9.790;2023-05-20T03:45:43;101956.50;;;9.68;61.08
39891;BME280;25564;53.312;9.790;2023-05-20T03:48:14;101963.66;;;9.79;61.11
39891;BME280;25564;53.312;9.790;2023-05-20T03:50:46;101954.84;;;9.83;61.51
39891;BME280;25564;53.312;9.790;2023-05-20T03:53:17;101960.16;;;9.87;61.50
39891;BME280;25564;53.312;9.790;2023-05-20T03:55:50;101968.16;;;9.93;60.99
39891;BME280;25564;53.312;9.790;2023-05-20T03:58:22;101973.47;;;9.97;61.24
39891;BME280;25564;53.312;9.790;2023-05-20T04:00:54;101963.75;;;10.01;61.31
39891;BME280;25564;53.312;9.790;2023-05-20T04:03:25;101953.16;;;9.98;61.19
39891;BME280;25564;53.312;9.790;2023-05-20T04:05:59;101947.84;;;10.01;61.34
39891;BME280;25564;53.312;9.790;2023-05-20T04:08:30;101970.00;;;10.13;61.02
39891;BME280;25564;53.312;9.790;2023-05-20T04:11:02;101975.31;;;10.15;61.17
39891;BME280;25564;53.312;9.790;2023-05-20T04:13:33;101977.09;;;10.16;61.53
39891;BME280;25564;53.312;9.790;2023-05-20T04:16:05;101980.63;;;10.18;61.45
39891;BME280;25564;53.312;9.790;2023-05-20T04:18:36;101980.63;;;10.18;61.22
39891;BME280;25564;53.312;9.790;2023-05-20T04:21:09;101968.25;;;10.14;61.17
39891;BME280;25564;53.312;9.790;2023-05-20T04:23:40;101982.47;;;10.22;61.57
39891;BME280;25564;53.312;9.790;2023-05-20T04:26:12;101975.41;;;10.23;61.50
39891;BME280;25564;53.312;9.790;2023-05-20T04:28:43;101973.63;;;10.25;61.61
39891;BME280;25564;53.312;9.790;2023-05-20T04:31:18;101979.84;;;10.27;61.49
39891;BME280;25564;53.312;9.790;2023-05-20T04:33:54;101968.31;;;10.26;61.45
39891;BME280;25564;53.312;9.790;2023-05-20T04:36:25;101978.97;;;10.32;61.86
39891;BME280;25564;53.312;9.790;2023-05-20T04:38:59;101985.16;;;10.34;61.51
39891;BME280;25564;53.312;9.790;2023-05-20T04:41:30;101972.78;;;10.35;61.42
39891;BME280;25564;53.312;9.790;2023-05-20T04:44:02;101957.72;;;10.31;61.68
39891;BME280;25564;53.312;9.790;2023-05-20T04:46:33;101954.22;;;10.33;61.28
39891;BME280;25564;53.312;9.790;2023-05-20T04:49:05;101972.78;;;10.45;61.43
39891;BME280;25564;53.312;9.790;2023-05-20T04:51:37;101955.09;;;10.35;62.22
39891;BME280;25564;53.312;9.790;2023-05-20T04:54:09;101963.97;;;10.51;62.28
39891;BME280;25564;53.312;9.790;2023-05-20T04:56:40;101962.19;;;10.50;61.81
39891;BME280;25564;53.312;9.790;2023-05-20T04:59:12;101969.28;;;10.59;61.65
39891;BME280;25564;53.312;9.790;2023-05-20T05:01:44;101963.97;;;10.60;61.50
39891;BME280;25564;53.312;9.790;2023-05-20T05:04:19;101971.09;;;10.73;61.70
39891;BME280;25564;53.312;9.790;2023-05-20T05:06:50;101974.66;;;10.80;61.81
39891;BME280;25564;53.312;9.790;2023-05-20T05:09:22;101966.69;;;10.89;62.39
39891;BME280;25564;53.312;9.790;2023-05-20T05:11:53;101977.31;;;11.01;62.26
39891;BME280;25564;53.312;9.790;2023-05-20T05:14:25;101956.06;;;10.98;61.86
39891;BME280;25564;53.312;9.790;2023-05-20T05:16:56;101960.50;;;11.14;62.11
39891;BME280;25564;53.312;9.790;2023-05-20T05:19:28;101971.13;;;11.27;62.36
39891;BME280;25564;53.312;9.790;2023-05-20T05:21:59;101981.75;;;11.36;62.35
39891;BME280;25564;53.312;9.790;2023-05-20T05:24:31;101964.06;;;11.33;62.22
39891;BME280;25564;53.312;9.790;2023-05-20T05:27:02;101976.41;;;11.53;61.93
39891;BME280;25564;53.312;9.790;2023-05-20T05:29:34;101984.34;;;11.75;62.04
39891;BME280;25564;53.312;9.790;2023-05-20T05:32:06;101986.13;;;11.87;61.76
39891;BME280;25564;53.312;9.790;2023-05-20T05:34:37;101979.91;;;11.96;61.81
39891;BME280;25564;53.312;9.790;2023-05-20T05:37:09;101979.84;;;12.11;61.89
39891;BME280;25564;53.312;9.790;2023-05-20T05:39:40;101962.06;;;12.19;61.63
39891;BME280;25564;53.312;9.790;2023-05-20T05:42:11;101980.69;;;12.27;61.66
39891;BME280;25564;53.312;9.790;2023-05-20T05:44:43;101969.13;;;12.28;61.91
39891;BME280;25564;53.312;9.790;2023-05-20T05:47:15;101982.38;;;12.41;61.15
39891;BME280;25564;53.312;9.790;2023-05-20T05:49:46;101976.09;;;12.49;61.52
39891;BME280;25564;53.312;9.790;2023-05-20T05:52:18;101957.56;;;12.38;61.51
39891;BME280;25564;53.312;9.790;2023-05-20T05:54:49;101979.59;;;12.58;61.70
39891;BME280;25564;53.312;9.790;2023-05-20T05:57:20;101970.66;;;12.67;61.82
39891;BME280;25564;53.312;9.790;2023-05-20T05:59:52;101973.25;;;12.79;61.51
39891;BME280;25564;53.312;9.790;2023-05-20T06:02:23;101952.78;;;12.87;61.24
39891;BME280;25564;53.312;9.790;2023-05-20T06:04:55;101970.19;;;13.35;61.55
39891;BME280;25564;53.312;9.790;2023-05-20T06:07:26;101966.19;;;14.53;59.87
39891;BME280;25564;53.312;9.790;2023-05-20T06:09:57;101970.81;;;15.52;57.85
39891;BME280;25564;53.312;9.790;2023-05-20T06:12:29;101969.06;;;15.99;56.65
39891;BME280;25564;53.312;9.790;2023-05-20T06:15:01;101980.91;;;16.30;55.94
39891;BME280;25564;53.312;9.790;2023-05-20T06:17:32;101974.69;;;16.70;54.71
39891;BME280;25564;53.312;9.790;2023-05-20T06:20:04;101971.66;;;16.85;54.38
39891;BME280;25564;53.312;9.790;2023-05-20T06:22:36;101966.00;;;17.33;53.55
39891;BME280;25564;53.312;9.790;2023-05-20T06:25:08;101972.13;;;17.72;52.96
39891;BME280;25564;53.312;9.790;2023-05-20T06:27:39;101966.41;;;17.84;52.69
39891;BME280;25564;53.312;9.790;2023-05-20T06:30:11;101968.19;;;17.85;52.81
39891;BME280;25564;53.312;9.790;2023-05-20T06:32:44;101975.72;;;17.71;52.76
39891;BME280;25564;53.312;9.790;2023-05-20T06:35:15;101967.56;;;17.42;53.09
39891;BME280;25564;53.312;9.790;2023-05-20T06:37:46;101951.69;;;16.97;53.76
39891;BME280;25564;53.312;9.790;2023-05-20T06:40:18;101960.03;;;16.85;54.38
39891;BME280;25564;53.312;9.790;2023-05-20T06:42:49;101968.31;;;16.74;54.89
39891;BME280;25564;53.312;9.790;2023-05-20T06:45:21;101965.06;;;16.60;54.99
39891;BME280;25564;53.312;9.790;2023-05-20T06:47:52;101965.25;;;16.52;55.31
39891;BME280;25564;53.312;9.790;2023-05-20T06:50:24;101985.09;;;16.44;55.61
39891;BME280;25564;53.312;9.790;2023-05-20T06:52:56;101931.66;;;15.94;55.94
39891;BME280;25564;53.312;9.790;2023-05-20T06:55:27;101960.78;;;16.11;56.44
39891;BME280;25564;53.312;9.790;2023-05-20T06:57:59;101962.41;;;16.18;55.86
39891;BME280;25564;53.312;9.790;2023-05-20T07:00:30;101952.81;;;16.08;55.86
39891;BME280;25564;53.312;9.790;2023-05-20T07:03:02;101938.75;;;15.97;55.84
39891;BME280;25564;53.312;9.790;2023-05-20T07:05:33;101960.88;;;16.07;55.76
39891;BME280;25564;53.312;9.790;2023-05-20T07:08:05;101933.41;;;15.95;55.83
39891;BME280;25564;53.312;9.790;2023-05-20T07:10:37;101944.69;;;16.11;55.88
39891;BME280;25564;53.312;9.790;2023-05-20T07:13:08;101930.47;;;16.09;55.92
39891;BME280;25564;53.312;9.790;2023-05-20T07:15:40;101942.63;;;16.25;55.84
39891;BME280;25564;53.312;9.790;2023-05-20T07:18:11;101935.03;;;16.46;55.69
39891;BME280;25564;53.312;9.790;2023-05-20T07:20:43;101934.56;;;16.65;55.75
39891;BME280;25564;53.312;9.790;2023-05-20T07:23:15;101924.84;;;16.61;55.21
39891;BME280;25564;53.312;9.790;2023-05-20T07:25:46;101939.16;;;16.60;55.20
39891;BME280;25564;53.312;9.790;2023-05-20T07:28:19;101939.25;;;16.56;55.38
39891;BME280;25564;53.312;9.790;2023-05-20T07:30:50;101930.50;;;16.48;55.47
39891;BME280;25564;53.312;9.790;2023-05-20T07:33:24;101945.44;;;16.59;55.27
39891;BME280;25564;53.312;9.790;2023-05-20T07:35:55;101924.94;;;16.57;55.23
39891;BME280;25564;53.312;9.790;2023-05-20T07:38:27;101927.19;;;16.75;55.42
39891;BME280;25564;53.312;9.790;2023-05-20T07:40:58;101930.28;;;16.95;55.18
39891;BME280;25564;53.312;9.790;2023-05-20T07:43:30;101912.28;;;17.00;55.21
39891;BME280;25564;53.312;9.790;2023-05-20T07:46:01;101929.66;;;17.20;54.80
39891;BME280;25564;53.312;9.790;2023-05-20T07:48:33;101930.56;;;17.20;54.49
39891;BME280;25564;53.312;9.790;2023-05-20T07:51:04;101931.28;;;17.27;54.58
39891;BME280;25564;53.312;9.790;2023-05-20T07:53:36;101916.34;;;17.17;54.45
39891;BME280;25564;53.312;9.790;2023-05-20T07:56:07;101935.75;;;17.26;54.11
39891;BME280;25564;53.312;9.790;2023-05-20T07:58:42;101934.88;;;17.26;54.35
39891;BME280;25564;53.312;9.790;2023-05-20T08:01:13;101933.13;;;17.25;54.22
39891;BME280;25564;53.312;9.790;2023-05-20T08:03:45;101934.56;;;17.38;54.19
39891;BME280;25564;53.312;9.790;2023-05-20T08:06:17;101937.25;;;17.38;54.05
39891;BME280;25564;53.312;9.790;2023-05-20T08:08:50;101931.75;;;17.43;53.99
39891;BME280;25564;53.312;9.790;2023-05-20T08:11:24;101931.16;;;17.31;53.81
39891;BME280;25564;53.312;9.790;2023-05-20T08:13:56;101924.09;;;17.27;53.80
39891;BME280;25564;53.312;9.790;2023-05-20T08:16:27;101931.84;;;17.40;53.90
39891;BME280;25564;53.312;9.790;2023-05-20T08:18:58;101932.41;;;17.52;53.81
39891;BME280;25564;53.312;9.790;2023-05-20T08:21:31;101935.63;;;17.65;53.71
39891;BME280;25564;53.312;9.790;2023-05-20T08:24:03;101925.94;;;17.92;53.45
39891;BME280;25564;53.312;9.790;2023-05-20T08:26:35;101911.41;;;17.99;53.27
39891;BME280;25564;53.312;9.790;2023-05-20T08:29:06;101916.84;;;18.27;53.24
39891;BME280;25564;53.312;9.790;2023-05-20T08:31:38;101915.38;;;18.45;52.41
39891;BME280;25564;53.312;9.790;2023-05-20T08:34:10;101918.22;;;18.40;52.55
39891;BME280;25564;53.312;9.790;2023-05-20T08:36:41;101918.53;;;18.59;52.46
39891;BME280;25564;53.312;9.790;2023-05-20T08:39:15;101911.78;;;18.74;52.14
39891;BME280;25564;53.312;9.790;2023-05-20T08:41:46;101921.94;;;18.66;51.95
39891;BME280;25564;53.312;9.790;2023-05-20T08:44:20;101905.94;;;18.61;52.05
39891;BME280;25564;53.312;9.790;2023-05-20T08:46:52;101902.50;;;18.56;51.57
39891;BME280;25564;53.312;9.790;2023-05-20T08:49:25;101912.50;;;18.51;52.01
39891;BME280;25564;53.312;9.790;2023-05-20T08:51:58;101892.22;;;18.70;51.58
39891;BME280;25564;53.312;9.790;2023-05-20T08:54:45;101906.31;;;19.03;50.34
39891;BME280;25564;53.312;9.790;2023-05-20T08:57:19;101890.53;;;18.92;51.09
39891;BME280;25564;53.312;9.790;2023-05-20T08:59:51;101902.75;;;19.03;50.64
39891;BME280;25564;53.312;9.790;2023-05-20T09:02:22;101901.03;;;19.00;50.13
39891;BME280;25564;53.312;9.790;2023-05-20T09:04:54;101893.75;;;19.04;50.37
39891;BME280;25564;53.312;9.790;2023-05-20T09:07:28;101870.16;;;19.12;49.99
39891;BME280;25564;53.312;9.790;2023-05-20T09:10:00;101870.84;;;19.43;49.49
39891;BME280;25564;53.312;9.790;2023-05-20T09:12:31;101892.56;;;19.87;48.56
39891;BME280;25564;53.312;9.790;2023-05-20T09:15:03;101880.81;;;20.13;49.08
39891;BME280;25564;53.312;9.790;2023-05-20T09:17:35;101847.94;;;19.80;48.55
39891;BME280;25564;53.312;9.790;2023-05-20T09:20:08;101879.97;;;20.11;48.52
39891;BME280;25564;53.312;9.790;2023-05-20T09:22:41;101883.97;;;20.01;48.03
39891;BME280;25564;53.312;9.790;2023-05-20T09:25:12;101890.94;;;20.06;47.90
39891;BME280;25564;53.312;9.790;2023-05-20T09:27:44;101884.25;;;19.93;47.94
39891;BME280;25564;53.312;9.790;2023-05-20T09:30:19;101855.91;;;19.59;47.70
39891;BME280;25564;53.312;9.790;2023-05-20T09:32:58;101877.38;;;19.36;48.49
39891;BME280;25564;53.312;9.790;2023-05-20T09:35:29;101888.22;;;19.08;48.34
39891;BME280;25564;53.312;9.790;2023-05-20T09:38:03;101873.19;;;18.75;48.19
39891;BME280;25564;53.312;9.790;2023-05-20T09:40:35;101876.31;;;18.63;49.00
39891;BME280;25564;53.312;9.790;2023-05-20T09:43:08;101881.63;;;18.90;49.05
39891;BME280;25564;53.312;9.790;2023-05-20T09:45:41;101879.31;;;19.06;48.77
39891;BME280;25564;53.312;9.790;2023-05-20T09:48:13;101872.00;;;19.10;47.95
39891;BME280;25564;53.312;9.790;2023-05-20T09:50:45;101867.97;;;18.97;48.38
39891;BME280;25564;53.312;9.790;2023-05-20T09:53:17;101862.63;;;18.70;48.28
39891;BME280;25564;53.312;9.790;2023-05-20T09:55:49;101866.91;;;18.48;48.56
39891;BME280;25564;53.312;9.790;2023-05-20T09:58:25;101858.09;;;18.43;48.95
39891;BME280;25564;53.312;9.790;2023-05-20T10:00:57;101842.66;;;18.49;49.07
39891;BME280;25564;53.312;9.790;2023-05-20T10:03:29;101845.09;;;18.57;48.86
39891;BME280;25564;53.312;9.790;2023-05-20T10:06:10;101848.59;;;18.87;48.72
39891;BME280;25564;53.312;9.790;2023-05-20T10:11:37;101841.66;;;19.06;47.96
39891;BME280;25564;53.312;9.790;2023-05-20T10:17:30;101852.69;;;19.48;48.18
39891;BME280;25564;53.312;9.790;2023-05-20T10:20:06;101834.19;;;19.64;47.44
39891;BME280;25564;53.312;9.790;2023-05-20T10:22:56;101846.06;;;19.82;47.60
39891;BME280;25564;53.312;9.790;2023-05-20T10:25:28;101851.13;;;19.68;47.23
39891;BME280;25564;53.312;9.790;2023-05-20T10:28:05;101843.50;;;19.55;47.42
39891;BME280;25564;53.312;9.790;2023-05-20T10:30:48;101805.34;;;19.43;46.88
39891;BME280;25564;53.312;9.790;2023-05-20T10:33:21;101850.50;;;19.83;46.78
39891;BME280;25564;53.312;9.790;2023-05-20T10:35:53;101848.69;;;20.07;46.83
39891;BME280;25564;53.312;9.790;2023-05-20T10:38:25;101826.78;;;19.92;46.33
39891;BME280;25564;53.312;9.790;2023-05-20T10:41:06;101825.72;;;20.20;46.23
39891;BME280;25564;53.312;9.790;2023-05-20T10:43:38;101838.19;;;20.22;45.93
39891;BME280;25564;53.312;9.790;2023-05-20T10:46:16;101818.19;;;20.06;45.55
39891;BME280;25564;53.312;9.790;2023-05-20T10:49:03;101837.19;;;19.56;45.77
39891;BME280;25564;53.312;9.790;2023-05-20T10:51:36;101823.47;;;19.13;46.42
39891;BME280;25564;53.312;9.790;2023-05-20T10:54:08;101803.78;;;18.86;46.72
39891;BME280;25564;53.312;9.790;2023-05-20T10:56:50;101816.09;;;18.93;46.88
39891;BME280;25564;53.312;9.790;2023-05-20T10:59:22;101825.13;;;19.17;46.53
39891;BME280;25564;53.312;9.790;2023-05-20T11:01:53;101824.13;;;19.44;46.85
39891;BME280;25564;53.312;9.790;2023-05-20T11:04:25;101807.72;;;19.52;46.28
39891;BME280;25564;53.312;9.790;2023-05-20T11:06:56;101817.38;;;19.57;46.49
39891;BME280;25564;53.312;9.790;2023-05-20T11:09:29;101812.81;;;19.35;45.98
39891;BME280;25564;53.312;9.790;2023-05-20T11:12:02;101800.69;;;19.23;46.15
39891;BME280;25564;53.312;9.790;2023-05-20T11:14:34;101802.56;;;19.21;46.73
39891;BME280;25564;53.312;9.790;2023-05-20T11:17:06;101807.59;;;19.30;46.45
39891;BME280;25564;53.312;9.790;2023-05-20T11:19:38;101799.59;;;19.28;46.69
39891;BME280;25564;53.312;9.790;2023-05-20T11:22:09;101807.66;;;19.28;46.76
39891;BME280;25564;53.312;9.790;2023-05-20T11:24:41;101795.91;;;19.31;46.50
39891;BME280;25564;53.312;9.790;2023-05-20T11:27:12;101771.97;;;19.23;46.64
39891;BME280;25564;53.312;9.790;2023-05-20T11:29:44;101791.63;;;19.25;46.65
39891;BME280;25564;53.312;9.790;2023-05-20T11:32:18;101791.94;;;19.41;46.56
39891;BME280;25564;53.312;9.790;2023-05-20T11:34:50;101798.78;;;19.51;46.95
39891;BME280;25564;53.312;9.790;2023-05-20T11:37:23;101791.66;;;19.49;46.73
39891;BME280;25564;53.312;9.790;2023-05-20T11:40:05;101791.81;;;19.44;46.69
39891;BME280;25564;53.312;9.790;2023-05-20T11:42:42;101788.97;;;19.49;47.22
39891;BME280;25564;53.312;9.790;2023-05-20T11:45:14;101789.31;;;19.40;47.06
39891;BME280;25564;53.312;9.790;2023-05-20T11:47:45;101785.25;;;19.03;47.25
39891;BME280;25564;53.312;9.790;2023-05-20T11:50:17;101797.75;;;18.79;47.39
39891;BME280;25564;53.312;9.790;2023-05-20T11:52:57;101786.72;;;18.62;48.09
39891;BME280;25564;53.312;9.790;2023-05-20T11:55:30;101803.56;;;18.67;48.22
39891;BME280;25564;53.312;9.790;2023-05-20T11:58:03;101793.28;;;18.78;47.97
39891;BME280;25564;53.312;9.790;2023-05-20T12:00:35;101796.16;;;18.99;48.13
39891;BME280;25564;53.312;9.790;2023-05-20T12:03:20;101786.13;;;19.28;47.89
39891;BME280;25564;53.312;9.790;2023-05-20T12:05:53;101784.16;;;19.58;47.56
39891;BME280;25564;53.312;9.790;2023-05-20T12:08:24;101777.53;;;19.67;47.04
39891;BME280;25564;53.312;9.790;2023-05-20T12:10:56;101778.53;;;19.86;46.93
39891;BME280;25564;53.312;9.790;2023-05-20T12:13:27;101757.03;;;19.63;46.96
39891;BME280;25564;53.312;9.790;2023-05-20T12:15:59;101768.88;;;19.81;47.21
39891;BME280;25564;53.312;9.790;2023-05-20T12:18:31;101768.22;;;19.98;46.55
39891;BME280;25564;53.312;9.790;2023-05-20T12:21:03;101748.22;;;20.03;46.36
39891;BME280;25564;53.312;9.790;2023-05-20T12:23:34;101762.72;;;20.22;46.63
39891;BME280;25564;53.312;9.790;2023-05-20T12:26:05;101762.16;;;20.14;46.41
39891;BME280;25564;53.312;9.790;2023-05-20T12:28:37;101753.50;;;20.06;46.33
39891;BME280;25564;53.312;9.790;2023-05-20T12:31:08;101773.13;;;20.10;46.69
39891;BME280;25564;53.312;9.790;2023-05-20T12:33:40;101764.53;;;20.00;46.57
39891;BME280;25564;53.312;9.790;2023-05-20T12:36:12;101751.34;;;19.71;46.36
39891;BME280;25564;53.312;9.790;2023-05-20T12:38:44;101733.47;;;19.45;46.72
39891;BME280;25564;53.312;9.790;2023-05-20T12:41:15;101774.44;;;19.76;47.11
39891;BME280;25564;53.312;9.790;2023-05-20T12:43:46;101756.09;;;19.86;47.00
39891;BME280;25564;53.312;9.790;2023-05-20T12:46:18;101765.34;;;20.02;46.52
39891;BME280;25564;53.312;9.790;2023-05-20T12:48:49;101765.41;;;20.22;46.59
39891;BME280;25564;53.312;9.790;2023-05-20T12:51:21;101765.16;;;20.29;46.59
39891;BME280;25564;53.312;9.790;2023-05-20T12:53:52;101758.41;;;20.18;46.73
39891;BME280;25564;53.312;9.790;2023-05-20T12:56:23;101755.38;;;20.04;46.24
39891;BME280;25564;53.312;9.790;2023-05-20T12:58:56;101744.28;;;19.90;46.90
39891;BME280;25564;53.312;9.790;2023-05-20T13:01:28;101753.16;;;19.92;46.79
39891;BME280;25564;53.312;9.790;2023-05-20T13:03:59;101755.75;;;19.73;47.04
39891;BME280;25564;53.312;9.790;2023-05-20T13:06:33;101742.25;;;19.50;47.51
39891;BME280;25564;53.312;9.790;2023-05-20T13:09:04;101735.28;;;19.44;47.73
39891;BME280;25564;53.312;9.790;2023-05-20T13:11:36;101712.88;;;19.44;47.67
39891;BME280;25564;53.312;9.790;2023-05-20T13:14:07;101737.53;;;19.56;47.43
39891;BME280;25564;53.312;9.790;2023-05-20T13:16:38;101722.66;;;19.46;47.46
39891;BME280;25564;53.312;9.790;2023-05-20T13:19:10;101728.75;;;19.51;47.77
39891;BME280;25564;53.312;9.790;2023-05-20T13:21:41;101719.41;;;19.62;47.34